Terminal Aerodrome Forecast
Issued by NWS Milwaukee/Sullivan, WI

Home | Current Version | Previous Version | Text Only | Print | Product List | Glossary On
Versions: 1 2 3 4 5 6 7 8 9 10 11 12 13 14 15 16 17 18 19 20 21 22 23 24 25 26 27 28 29 30 31 32 33 34 35 36 37 38 39 40 41 42 43 44 45 46 47 48 49 50
000
FTUS43 KMKX 272332
TAFMSN
TAF
KMSN 272332Z 2800/2824 VRB03KT P6SM FEW025 SCT200
     FM280800 00000KT P6SM OVC100
     FM281000 17004KT P6SM -SN OVC050
      TEMPO 2810/2812 2SM -SN OVC025
     FM281200 16006KT 2SM -SN OVC015
      TEMPO 2812/2814 1SM -SN OVC008
     FM281400 16008KT 3SM -SN OVC025
     FM281500 16009KT P6SM OVC025
     FM282000 17008KT P6SM OVC020=

USA.gov is the U.S. government's official web portal to all federal, state and local government web resources and services.